createdAt,value
2022-11-17T00:00:36.349Z,6.80
2022-11-17T02:15:55.246Z,7.70
2022-11-17T02:17:58.271Z,7.80
2022-11-17T02:20:14.215Z,7.90
2022-11-17T02:22:39.733Z,7.80
2022-11-17T02:24:52.844Z,7.90
2022-11-17T02:27:25.746Z,7.70
2022-11-17T02:29:54.252Z,7.90
2022-11-17T02:32:10.847Z,7.80
2022-11-17T02:34:34.642Z,7.90
2022-11-17T02:36:54.566Z,8.20
2022-11-17T02:39:21.027Z,8.00
2022-11-17T02:41:30.803Z,8.20
2022-11-17T02:43:59.798Z,8.30
2022-11-17T02:46:12.126Z,8.30
2022-11-17T02:48:21.373Z,8.00
2022-11-17T02:50:28.464Z,8.10
2022-11-17T02:52:31.245Z,8.20
2022-11-17T02:54:33.800Z,8.00
2022-11-17T02:56:41.243Z,8.10
2022-11-17T02:58:43.126Z,8.10
2022-11-17T03:01:15.793Z,8.20
2022-11-17T03:03:34.521Z,8.20
2022-11-17T03:06:11.964Z,8.30
2022-11-17T03:08:45.276Z,8.30
2022-11-17T03:11:01.083Z,8.20
2022-11-17T03:13:16.889Z,8.20
2022-11-17T03:15:27.882Z,8.20
2022-11-17T03:17:32.583Z,8.00
2022-11-17T03:19:55.143Z,8.30
2022-11-17T03:22:18.299Z,8.20
2022-11-17T03:24:33.742Z,8.00
2022-11-17T03:26:43.299Z,8.20
2022-11-17T03:28:47.046Z,8.10
2022-11-17T03:30:50.953Z,8.00
2022-11-17T03:32:58.391Z,8.10
2022-11-17T03:35:08.254Z,8.00
2022-11-17T03:37:13.602Z,7.90
2022-11-17T03:39:43.287Z,7.90
2022-11-17T03:41:48.429Z,7.90
2022-11-17T03:43:52.680Z,7.90
2022-11-17T03:45:59.040Z,7.90
2022-11-17T03:48:08.497Z,8.00
2022-11-17T03:50:16.765Z,8.10
2022-11-17T03:52:19.809Z,7.80
2022-11-17T03:54:21.718Z,7.70
2022-11-17T03:56:35.502Z,7.80
2022-11-17T03:58:42.821Z,7.70
2022-11-17T04:00:46.578Z,7.60
2022-11-17T04:02:54.144Z,7.60
2022-11-17T04:05:08.034Z,7.50
2022-11-17T04:07:09.971Z,7.50
2022-11-17T04:09:11.988Z,7.50
2022-11-17T04:11:32.600Z,7.30
2022-11-17T04:13:52.961Z,7.40
2022-11-17T04:15:59.350Z,7.40
2022-11-17T04:18:02.086Z,7.40
2022-11-17T04:20:04.279Z,7.20
2022-11-17T04:22:06.143Z,7.10
2022-11-17T04:24:08.422Z,7.10
2022-11-17T04:26:30.343Z,7.10
2022-11-17T04:28:36.905Z,7.20
2022-11-17T04:30:38.745Z,7.30
2022-11-17T04:32:40.638Z,7.30
2022-11-17T04:34:42.686Z,7.20
2022-11-17T04:36:44.470Z,7.30
2022-11-17T04:38:49.675Z,7.40
2022-11-17T04:41:10.111Z,7.20
2022-11-17T04:43:11.958Z,7.40
2022-11-17T04:45:13.952Z,7.40
2022-11-17T04:47:15.796Z,7.20
2022-11-17T04:49:18.999Z,7.20
2022-11-17T04:51:21.747Z,7.30
2022-11-17T04:53:24.628Z,7.30
2022-11-17T04:55:26.442Z,7.20
2022-11-17T04:57:28.444Z,7.10
2022-11-17T04:59:30.176Z,7.00
2022-11-17T05:01:32.675Z,7.00
2022-11-17T05:03:34.945Z,6.80
2022-11-17T05:05:37.024Z,7.00
2022-11-17T05:07:38.960Z,7.00
2022-11-17T05:09:40.897Z,6.90
2022-11-17T05:12:01.973Z,6.90
2022-11-17T05:14:03.825Z,6.80
2022-11-17T05:16:24.620Z,7.00
2022-11-17T05:18:26.460Z,7.00
2022-11-17T05:20:28.309Z,6.80
2022-11-17T05:22:48.850Z,7.00
2022-11-17T05:24:51.579Z,6.80
2022-11-17T05:26:53.958Z,6.70
2022-11-17T05:28:57.706Z,6.60
2022-11-17T05:30:59.556Z,6.80
2022-11-17T05:33:01.401Z,6.70
2022-11-17T05:35:03.451Z,6.80
2022-11-17T05:37:05.402Z,6.70
2022-11-17T05:39:08.146Z,6.70
2022-11-17T05:41:10.062Z,6.70
2022-11-17T05:43:11.923Z,6.70
2022-11-17T05:45:13.779Z,6.50
2022-11-17T05:47:15.742Z,6.50
2022-11-17T05:49:17.636Z,6.40
2022-11-17T05:51:24.011Z,6.30
2022-11-17T05:53:26.893Z,6.30
2022-11-17T05:55:28.794Z,6.20
2022-11-17T05:57:32.092Z,6.10
2022-11-17T05:59:41.566Z,6.00
2022-11-17T08:15:14.527Z,4.70
2022-11-17T08:17:17.545Z,4.50
2022-11-17T08:19:19.373Z,4.40
2022-11-17T08:21:21.346Z,4.50
2022-11-17T08:23:23.691Z,4.50
2022-11-17T08:25:27.624Z,4.50
2022-11-17T08:27:29.515Z,4.50
2022-11-17T08:29:31.371Z,4.60
2022-11-17T08:31:33.329Z,4.60
2022-11-17T08:33:35.304Z,4.70
2022-11-17T08:35:37.861Z,4.50
2022-11-17T08:37:41.375Z,4.70
2022-11-17T08:39:43.656Z,4.70
2022-11-17T08:41:45.484Z,4.50
2022-11-17T08:43:47.316Z,4.50
2022-11-17T08:45:49.173Z,4.50
2022-11-17T08:47:50.995Z,4.40
2022-11-17T08:49:52.827Z,4.30
2022-11-17T08:51:54.694Z,4.30
2022-11-17T08:53:58.546Z,4.20
2022-11-17T08:56:00.370Z,4.20
2022-11-17T08:58:03.615Z,4.30
2022-11-17T09:00:06.852Z,4.40
2022-11-17T09:02:11.040Z,4.40
2022-11-17T09:04:12.971Z,4.40
2022-11-17T09:06:16.981Z,4.50
2022-11-17T09:10:41.560Z,4.40
2022-11-17T09:12:43.653Z,4.30
2022-11-17T09:14:45.347Z,4.30
2022-11-17T09:16:47.234Z,4.30
2022-11-17T09:18:49.059Z,4.20
2022-11-17T09:20:50.895Z,4.30
2022-11-17T09:22:52.737Z,4.30
2022-11-17T09:24:54.566Z,4.30
2022-11-17T09:26:57.551Z,4.20
2022-11-17T09:29:03.672Z,4.20
2022-11-17T09:31:23.780Z,4.20
2022-11-17T09:33:26.068Z,4.30
2022-11-17T09:35:27.952Z,4.20
2022-11-17T09:37:29.820Z,4.30
2022-11-17T09:39:31.630Z,4.30
2022-11-17T09:41:43.474Z,4.30
2022-11-17T09:44:09.419Z,4.30
2022-11-17T09:46:21.318Z,4.30
2022-11-17T09:48:44.200Z,4.30
2022-11-17T09:50:49.379Z,4.20
2022-11-17T09:52:58.033Z,4.20
2022-11-17T09:55:09.498Z,4.20
2022-11-17T09:57:43.059Z,4.40
2022-11-17T09:59:45.307Z,4.30
2022-11-17T10:01:47.281Z,4.30
2022-11-17T12:17:26.409Z,7.90
2022-11-17T12:20:07.603Z,6.90
2022-11-17T12:22:16.135Z,6.60
2022-11-17T12:24:32.089Z,6.60
2022-11-17T12:26:34.979Z,6.50
2022-11-17T12:28:39.824Z,6.30
2022-11-17T12:30:44.889Z,6.10
2022-11-17T12:32:53.895Z,6.10
2022-11-17T12:35:34.351Z,6.10
2022-11-17T12:37:36.338Z,6.00
2022-11-17T12:39:56.877Z,5.80
2022-11-17T12:42:08.533Z,5.60
2022-11-17T12:44:32.022Z,6.00
2022-11-17T12:46:34.026Z,5.90
2022-11-17T12:48:37.158Z,5.70
2022-11-17T12:50:51.668Z,5.50
2022-11-17T12:52:59.384Z,5.60
2022-11-17T12:55:13.990Z,5.50
2022-11-17T12:57:26.802Z,5.50
2022-11-17T12:59:44.059Z,5.40
2022-11-17T13:02:17.765Z,5.20
2022-11-17T13:04:32.471Z,5.20
2022-11-17T13:06:36.347Z,5.30
2022-11-17T13:08:38.995Z,5.30
2022-11-17T13:10:41.879Z,5.20
2022-11-17T13:12:43.797Z,5.20
2022-11-17T13:14:59.958Z,4.90
2022-11-17T13:17:02.928Z,4.80
2022-11-17T13:19:24.931Z,4.80
2022-11-17T13:21:26.819Z,5.10
2022-11-17T13:23:32.612Z,4.90
2022-11-17T13:25:34.810Z,5.00
2022-11-17T13:27:36.638Z,4.80
2022-11-17T13:29:38.465Z,4.90
2022-11-17T13:31:40.857Z,4.80
2022-11-17T13:33:42.835Z,4.60
2022-11-17T13:35:44.683Z,4.50
2022-11-17T13:38:18.353Z,4.60
2022-11-17T13:40:22.106Z,4.60
2022-11-17T13:42:26.546Z,4.40
2022-11-17T13:44:29.025Z,4.30
2022-11-17T13:46:30.849Z,4.30
2022-11-17T13:48:38.469Z,4.40
2022-11-17T13:50:40.645Z,4.40
2022-11-17T13:52:46.941Z,4.30
2022-11-17T13:54:49.192Z,4.20
2022-11-17T13:56:54.680Z,4.30
2022-11-17T13:58:57.940Z,4.30
2022-11-17T16:13:54.405Z,2.50
2022-11-17T16:15:56.957Z,1.90
2022-11-17T16:17:58.920Z,3.00
2022-11-17T16:20:00.831Z,0.90
2022-11-17T16:22:03.058Z,2.60
2022-11-17T16:24:05.408Z,1.10
2022-11-17T16:26:08.804Z,2.50
2022-11-17T16:28:11.608Z,1.80
2022-11-17T16:30:13.584Z,1.20
2022-11-17T16:32:15.347Z,2.20
2022-11-17T16:34:18.778Z,1.20
2022-11-17T16:36:23.459Z,2.10
2022-11-17T16:38:25.334Z,1.50
2022-11-17T16:40:27.235Z,1.60
2022-11-17T16:42:29.084Z,1.60
2022-11-17T16:44:31.021Z,1.60
2022-11-17T16:46:32.906Z,3.10
2022-11-17T16:48:34.771Z,2.10
2022-11-17T16:50:38.113Z,1.90
2022-11-17T16:52:39.949Z,1.90
2022-11-17T16:54:42.076Z,3.00
2022-11-17T16:56:44.170Z,2.30
2022-11-17T16:58:49.185Z,2.60
2022-11-17T17:00:51.042Z,2.80
2022-11-17T17:02:52.938Z,2.30
2022-11-17T17:04:54.818Z,2.90
2022-11-17T17:06:56.670Z,3.70
2022-11-17T17:09:03.592Z,3.50
2022-11-17T17:11:10.835Z,3.60
2022-11-17T17:13:12.712Z,2.80
2022-11-17T17:15:14.684Z,2.70
2022-11-17T17:17:18.728Z,3.00
2022-11-17T17:19:20.620Z,2.80
2022-11-17T17:21:23.397Z,3.20
2022-11-17T17:23:25.635Z,2.20
2022-11-17T17:25:27.465Z,3.20
2022-11-17T17:27:30.658Z,2.40
2022-11-17T17:29:32.632Z,2.30
2022-11-17T17:31:36.106Z,2.00
2022-11-17T17:33:38.559Z,2.90
2022-11-17T17:35:40.413Z,2.00
2022-11-17T17:37:42.236Z,2.50
2022-11-17T17:39:44.086Z,3.00
2022-11-17T17:41:46.200Z,2.70
2022-11-17T17:43:53.675Z,1.90
2022-11-17T17:46:00.650Z,3.00
2022-11-17T17:48:02.501Z,1.90
2022-11-17T17:50:04.628Z,2.00
2022-11-17T17:52:10.954Z,1.80
2022-11-17T17:54:17.841Z,3.00
2022-11-17T17:56:21.815Z,1.90
2022-11-17T17:58:24.140Z,3.00
2022-11-17T18:00:26.577Z,2.10
2022-11-17T20:13:03.921Z,7.80
2022-11-17T20:15:06.105Z,7.20
2022-11-17T20:17:07.967Z,6.30
2022-11-17T20:19:11.172Z,6.50
2022-11-17T20:21:14.072Z,5.50
2022-11-17T20:23:16.109Z,5.30
2022-11-17T20:25:17.872Z,5.80
2022-11-17T20:27:21.264Z,5.40
2022-11-17T20:29:23.128Z,5.80
2022-11-17T20:31:31.932Z,4.70
2022-11-17T20:33:34.646Z,5.10
2022-11-17T20:35:40.118Z,5.00
2022-11-17T20:37:42.045Z,3.80
2022-11-17T20:39:44.698Z,4.10
2022-11-17T20:41:46.549Z,4.10
2022-11-17T20:43:50.009Z,3.10
2022-11-17T20:45:52.911Z,3.30
2022-11-17T20:47:55.132Z,3.50
2022-11-17T20:49:56.994Z,3.90
2022-11-17T20:51:58.842Z,2.80
2022-11-17T20:54:00.688Z,3.90
2022-11-17T20:56:04.678Z,3.50
2022-11-17T20:58:06.511Z,2.60
2022-11-17T21:00:09.091Z,3.60
2022-11-17T21:02:13.709Z,2.50
2022-11-17T21:04:15.609Z,2.60
2022-11-17T21:06:18.744Z,3.50
2022-11-17T21:08:20.816Z,3.40
2022-11-17T21:10:24.000Z,2.20
2022-11-17T21:12:25.865Z,3.20
2022-11-17T21:14:27.952Z,2.20
2022-11-17T21:16:29.872Z,2.70
2022-11-17T21:18:32.239Z,2.30
2022-11-17T21:20:34.325Z,2.60
2022-11-17T21:22:36.129Z,3.00
2022-11-17T21:24:37.979Z,2.70
2022-11-17T21:26:39.990Z,3.00
2022-11-17T21:28:41.747Z,3.10
2022-11-17T21:30:43.829Z,2.50
2022-11-17T21:32:47.608Z,2.40
2022-11-17T21:34:55.359Z,2.70
2022-11-17T21:36:57.234Z,3.00
2022-11-17T21:38:59.995Z,2.40
2022-11-17T21:41:04.043Z,2.90
2022-11-17T21:43:12.177Z,2.60
2022-11-17T21:45:14.391Z,2.50
2022-11-17T21:47:16.175Z,2.30
2022-11-17T21:49:18.330Z,2.40
2022-11-17T21:51:28.900Z,2.30
2022-11-17T21:53:31.558Z,2.60
2022-11-17T21:55:33.411Z,2.60
2022-11-17T21:57:35.268Z,2.20
2022-11-17T21:59:37.175Z,2.20
2022-11-17T22:01:39.822Z,2.50
2022-11-17T22:03:42.885Z,2.20
2022-11-17T22:05:44.766Z,2.10
2022-11-17T22:07:46.592Z,2.00
2022-11-17T22:09:48.494Z,2.10
2022-11-17T22:11:51.407Z,2.00
2022-11-17T22:13:53.240Z,2.10
2022-11-17T22:15:55.129Z,2.10
2022-11-17T22:17:56.974Z,2.00
2022-11-17T22:19:58.805Z,2.00
2022-11-17T22:22:00.661Z,1.80
2022-11-17T22:24:03.915Z,1.60
2022-11-17T22:26:06.464Z,1.70
2022-11-17T22:28:08.326Z,1.60
2022-11-17T22:30:10.671Z,1.50
2022-11-17T22:32:12.477Z,1.30
2022-11-17T22:34:14.503Z,1.40
2022-11-17T22:36:16.234Z,1.20
2022-11-17T22:38:18.099Z,1.20
2022-11-17T22:40:19.947Z,1.10
2022-11-17T22:42:21.797Z,1.00
2022-11-17T22:44:25.045Z,0.90
2022-11-17T22:46:28.860Z,0.80
2022-11-17T22:48:31.106Z,0.70
2022-11-17T22:50:33.009Z,0.60
2022-11-17T22:52:34.868Z,0.60
2022-11-17T22:54:36.790Z,0.70
2022-11-17T22:56:39.199Z,0.70
2022-11-17T22:58:41.147Z,0.60
2022-11-17T23:00:43.261Z,0.60
2022-11-17T23:02:45.056Z,0.70
2022-11-17T23:04:46.918Z,0.60
2022-11-17T23:06:49.494Z,0.60
2022-11-17T23:08:51.480Z,0.50
2022-11-17T23:11:09.002Z,0.60
2022-11-17T23:13:15.011Z,0.60
2022-11-17T23:15:16.915Z,0.60
2022-11-17T23:17:19.719Z,0.60
2022-11-17T23:19:21.714Z,0.50
2022-11-17T23:21:23.745Z,0.60
2022-11-17T23:23:25.775Z,0.70
2022-11-17T23:25:27.491Z,0.80
2022-11-17T23:27:29.393Z,0.70
2022-11-17T23:29:31.297Z,0.70
2022-11-17T23:31:33.050Z,0.70
2022-11-17T23:33:40.389Z,0.70
2022-11-17T23:35:42.272Z,0.70
2022-11-17T23:37:44.106Z,0.70
2022-11-17T23:39:45.964Z,0.70
2022-11-17T23:41:47.927Z,0.70
2022-11-17T23:43:50.964Z,0.70
2022-11-17T23:45:52.795Z,0.70
2022-11-17T23:47:54.624Z,0.70
2022-11-17T23:49:56.481Z,0.70
2022-11-17T23:51:58.323Z,0.70
2022-11-17T23:54:01.632Z,0.70
2022-11-17T23:56:04.294Z,0.70
2022-11-17T23:58:06.114Z,0.70
